sensor_id;sensor_type;location;lat;lon;timestamp;temperature;humidity
19437;DHT22;9854;50.968;4.168;2023-03-01T00:01:22;2.70;99.90
19437;DHT22;9854;50.968;4.168;2023-03-01T00:03:48;2.60;99.90
19437;DHT22;9854;50.968;4.168;2023-03-01T00:06:14;2.60;99.90
19437;DHT22;9854;50.968;4.168;2023-03-01T00:08:40;2.60;99.90
19437;DHT22;9854;50.968;4.168;2023-03-01T00:11:10;2.60;99.90
19437;DHT22;9854;50.968;4.168;2023-03-01T00:13:37;2.60;99.90
19437;DHT22;9854;50.968;4.168;2023-03-01T00:16:05;2.50;99.90
19437;DHT22;9854;50.968;4.168;2023-03-01T00:18:31;2.50;99.90
19437;DHT22;9854;50.968;4.168;2023-03-01T00:20:57;2.50;99.90
19437;DHT22;9854;50.968;4.168;2023-03-01T00:23:23;2.50;99.90
19437;DHT22;9854;50.968;4.168;2023-03-01T00:25:50;2.50;99.90
19437;DHT22;9854;50.968;4.168;2023-03-01T00:28:16;2.50;99.90
19437;DHT22;9854;50.968;4.168;2023-03-01T00:30:42;2.70;99.90
19437;DHT22;9854;50.968;4.168;2023-03-01T00:33:08;2.80;99.90
19437;DHT22;9854;50.968;4.168;2023-03-01T00:35:34;3.00;99.90
19437;DHT22;9854;50.968;4.168;2023-03-01T00:38:00;3.00;99.90
19437;DHT22;9854;50.968;4.168;2023-03-01T00:40:28;2.90;99.90
19437;DHT22;9854;50.968;4.168;2023-03-01T00:42:54;2.70;99.90
19437;DHT22;9854;50.968;4.168;2023-03-01T00:45:20;2.50;99.90
19437;DHT22;9854;50.968;4.168;2023-03-01T00:47:46;2.30;99.90
19437;DHT22;9854;50.968;4.168;2023-03-01T00:50:13;2.20;99.90
19437;DHT22;9854;50.968;4.168;2023-03-01T00:52:39;2.10;99.90
19437;DHT22;9854;50.968;4.168;2023-03-01T00:55:05;2.10;99.90
19437;DHT22;9854;50.968;4.168;2023-03-01T00:57:31;2.10;99.90
19437;DHT22;9854;50.968;4.168;2023-03-01T00:59:57;2.10;99.90
19437;DHT22;9854;50.968;4.168;2023-03-01T01:02:23;2.00;99.90
19437;DHT22;9854;50.968;4.168;2023-03-01T01:04:49;2.00;99.90
19437;DHT22;9854;50.968;4.168;2023-03-01T01:07:15;2.00;99.90
19437;DHT22;9854;50.968;4.168;2023-03-01T01:09:41;2.10;99.90
19437;DHT22;9854;50.968;4.168;2023-03-01T01:12:06;2.20;99.90
19437;DHT22;9854;50.968;4.168;2023-03-01T01:14:33;2.10;99.90
19437;DHT22;9854;50.968;4.168;2023-03-01T01:16:58;2.10;99.90
19437;DHT22;9854;50.968;4.168;2023-03-01T01:19:25;2.00;99.90
19437;DHT22;9854;50.968;4.168;2023-03-01T01:21:51;2.00;99.90
19437;DHT22;9854;50.968;4.168;2023-03-01T01:24:17;1.90;99.90
19437;DHT22;9854;50.968;4.168;2023-03-01T01:26:44;2.00;99.90
19437;DHT22;9854;50.968;4.168;2023-03-01T01:29:10;1.90;99.90
19437;DHT22;9854;50.968;4.168;2023-03-01T01:31:38;1.90;99.90
19437;DHT22;9854;50.968;4.168;2023-03-01T01:34:05;1.80;99.90
19437;DHT22;9854;50.968;4.168;2023-03-01T01:36:32;1.90;99.90
19437;DHT22;9854;50.968;4.168;2023-03-01T01:38:58;1.90;99.90
19437;DHT22;9854;50.968;4.168;2023-03-01T01:41:26;1.90;99.90
19437;DHT22;9854;50.968;4.168;2023-03-01T01:44:18;2.00;99.90
19437;DHT22;9854;50.968;4.168;2023-03-01T01:46:48;1.90;99.90
19437;DHT22;9854;50.968;4.168;2023-03-01T01:51:48;1.80;99.90
19437;DHT22;9854;50.968;4.168;2023-03-01T01:57:26;1.90;99.90
19437;DHT22;9854;50.968;4.168;2023-03-01T01:59:55;1.80;99.90
19437;DHT22;9854;50.968;4.168;2023-03-01T02:02:22;1.70;99.90
19437;DHT22;9854;50.968;4.168;2023-03-01T02:04:49;1.70;99.90
19437;DHT22;9854;50.968;4.168;2023-03-01T02:07:21;1.80;99.90
19437;DHT22;9854;50.968;4.168;2023-03-01T02:09:50;1.80;99.90
19437;DHT22;9854;50.968;4.168;2023-03-01T02:12:19;1.90;99.90
19437;DHT22;9854;50.968;4.168;2023-03-01T02:14:46;2.00;99.90
19437;DHT22;9854;50.968;4.168;2023-03-01T02:17:12;2.00;99.90
19437;DHT22;9854;50.968;4.168;2023-03-01T02:22:33;1.80;99.90
19437;DHT22;9854;50.968;4.168;2023-03-01T02:27:48;1.60;99.90
19437;DHT22;9854;50.968;4.168;2023-03-01T02:30:17;1.60;99.90
19437;DHT22;9854;50.968;4.168;2023-03-01T02:32:44;1.60;99.90
19437;DHT22;9854;50.968;4.168;2023-03-01T02:35:14;1.50;99.90
19437;DHT22;9854;50.968;4.168;2023-03-01T02:37:42;1.40;99.90
19437;DHT22;9854;50.968;4.168;2023-03-01T02:40:12;1.40;99.90
19437;DHT22;9854;50.968;4.168;2023-03-01T02:42:54;1.40;99.90
19437;DHT22;9854;50.968;4.168;2023-03-01T02:45:21;1.30;99.90
19437;DHT22;9854;50.968;4.168;2023-03-01T02:47:47;1.30;99.90
19437;DHT22;9854;50.968;4.168;2023-03-01T02:50:23;1.40;99.90
19437;DHT22;9854;50.968;4.168;2023-03-01T02:53:19;1.30;99.90
19437;DHT22;9854;50.968;4.168;2023-03-01T02:55:48;1.30;99.90
19437;DHT22;9854;50.968;4.168;2023-03-01T02:58:15;1.30;99.90
19437;DHT22;9854;50.968;4.168;2023-03-01T03:00:42;1.30;99.90
19437;DHT22;9854;50.968;4.168;2023-03-01T03:03:17;1.30;99.90
19437;DHT22;9854;50.968;4.168;2023-03-01T03:05:44;1.30;99.90
19437;DHT22;9854;50.968;4.168;2023-03-01T03:08:10;1.30;99.90
19437;DHT22;9854;50.968;4.168;2023-03-01T03:10:39;1.30;99.90
19437;DHT22;9854;50.968;4.168;2023-03-01T03:13:08;1.20;99.90
19437;DHT22;9854;50.968;4.168;2023-03-01T03:15:34;1.20;99.90
19437;DHT22;9854;50.968;4.168;2023-03-01T03:18:04;1.20;99.90
19437;DHT22;9854;50.968;4.168;2023-03-01T03:20:30;1.20;99.90
19437;DHT22;9854;50.968;4.168;2023-03-01T03:22:57;1.20;99.90
19437;DHT22;9854;50.968;4.168;2023-03-01T03:25:27;1.20;99.90
19437;DHT22;9854;50.968;4.168;2023-03-01T03:27:53;1.20;99.90
19437;DHT22;9854;50.968;4.168;2023-03-01T03:30:30;1.20;99.90
19437;DHT22;9854;50.968;4.168;2023-03-01T03:32:57;1.20;99.90
19437;DHT22;9854;50.968;4.168;2023-03-01T03:35:27;1.20;99.90
19437;DHT22;9854;50.968;4.168;2023-03-01T03:37:56;1.20;99.90
19437;DHT22;9854;50.968;4.168;2023-03-01T03:40:39;1.10;99.90
19437;DHT22;9854;50.968;4.168;2023-03-01T03:43:07;1.20;99.90
19437;DHT22;9854;50.968;4.168;2023-03-01T03:45:34;1.20;99.90
19437;DHT22;9854;50.968;4.168;2023-03-01T03:48:01;1.20;99.90
19437;DHT22;9854;50.968;4.168;2023-03-01T03:50:27;1.10;99.90
19437;DHT22;9854;50.968;4.168;2023-03-01T03:52:53;1.20;99.90
19437;DHT22;9854;50.968;4.168;2023-03-01T03:55:19;1.10;99.90
19437;DHT22;9854;50.968;4.168;2023-03-01T03:57:48;1.10;99.90
19437;DHT22;9854;50.968;4.168;2023-03-01T04:00:21;1.00;99.90
19437;DHT22;9854;50.968;4.168;2023-03-01T04:02:50;1.00;99.90
19437;DHT22;9854;50.968;4.168;2023-03-01T04:05:17;1.00;99.90
19437;DHT22;9854;50.968;4.168;2023-03-01T04:07:44;0.90;99.90
19437;DHT22;9854;50.968;4.168;2023-03-01T04:10:12;0.90;99.90
19437;DHT22;9854;50.968;4.168;2023-03-01T04:12:39;1.00;99.90
19437;DHT22;9854;50.968;4.168;2023-03-01T04:15:06;1.00;99.90
19437;DHT22;9854;50.968;4.168;2023-03-01T04:17:42;0.80;99.90
19437;DHT22;9854;50.968;4.168;2023-03-01T04:20:13;0.90;99.90
19437;DHT22;9854;50.968;4.168;2023-03-01T04:22:45;0.90;99.90
19437;DHT22;9854;50.968;4.168;2023-03-01T04:25:13;0.90;99.90
19437;DHT22;9854;50.968;4.168;2023-03-01T04:27:40;0.90;99.90
19437;DHT22;9854;50.968;4.168;2023-03-01T04:30:07;0.90;99.90
19437;DHT22;9854;50.968;4.168;2023-03-01T04:32:33;0.90;99.90
19437;DHT22;9854;50.968;4.168;2023-03-01T04:34:59;1.20;99.90
19437;DHT22;9854;50.968;4.168;2023-03-01T04:37:25;1.10;99.90
19437;DHT22;9854;50.968;4.168;2023-03-01T04:39:51;1.00;99.90
19437;DHT22;9854;50.968;4.168;2023-03-01T04:42:17;1.00;99.90
19437;DHT22;9854;50.968;4.168;2023-03-01T04:44:44;1.00;99.90
19437;DHT22;9854;50.968;4.168;2023-03-01T04:47:10;0.90;99.90
19437;DHT22;9854;50.968;4.168;2023-03-01T04:49:35;0.90;99.90
19437;DHT22;9854;50.968;4.168;2023-03-01T04:52:02;0.80;99.90
19437;DHT22;9854;50.968;4.168;2023-03-01T04:54:29;0.90;99.90
19437;DHT22;9854;50.968;4.168;2023-03-01T04:56:55;0.90;99.90
19437;DHT22;9854;50.968;4.168;2023-03-01T04:59:21;0.80;99.90
19437;DHT22;9854;50.968;4.168;2023-03-01T05:01:48;0.80;99.90
19437;DHT22;9854;50.968;4.168;2023-03-01T05:04:14;0.80;99.90
19437;DHT22;9854;50.968;4.168;2023-03-01T05:06:40;0.80;99.90
19437;DHT22;9854;50.968;4.168;2023-03-01T05:09:06;0.80;99.90
19437;DHT22;9854;50.968;4.168;2023-03-01T05:11:32;0.70;99.90
19437;DHT22;9854;50.968;4.168;2023-03-01T05:14:02;0.70;99.90
19437;DHT22;9854;50.968;4.168;2023-03-01T05:16:28;0.70;99.90
19437;DHT22;9854;50.968;4.168;2023-03-01T05:18:53;0.70;99.90
19437;DHT22;9854;50.968;4.168;2023-03-01T05:21:21;0.70;99.90
19437;DHT22;9854;50.968;4.168;2023-03-01T05:23:47;0.70;99.90
19437;DHT22;9854;50.968;4.168;2023-03-01T05:26:13;0.70;99.90
19437;DHT22;9854;50.968;4.168;2023-03-01T05:28:39;0.60;99.90
19437;DHT22;9854;50.968;4.168;2023-03-01T05:31:05;0.60;99.90
19437;DHT22;9854;50.968;4.168;2023-03-01T05:33:41;0.60;99.90
19437;DHT22;9854;50.968;4.168;2023-03-01T05:36:07;0.60;99.90
19437;DHT22;9854;50.968;4.168;2023-03-01T05:38:35;0.60;99.90
19437;DHT22;9854;50.968;4.168;2023-03-01T05:41:01;0.50;99.90
19437;DHT22;9854;50.968;4.168;2023-03-01T05:43:30;0.50;99.90
19437;DHT22;9854;50.968;4.168;2023-03-01T05:45:57;0.50;99.90
19437;DHT22;9854;50.968;4.168;2023-03-01T05:48:23;0.50;99.90
19437;DHT22;9854;50.968;4.168;2023-03-01T05:50:48;0.50;99.90
19437;DHT22;9854;50.968;4.168;2023-03-01T05:53:19;0.50;99.90
19437;DHT22;9854;50.968;4.168;2023-03-01T05:55:48;0.50;99.90
19437;DHT22;9854;50.968;4.168;2023-03-01T05:58:17;0.40;99.90
19437;DHT22;9854;50.968;4.168;2023-03-01T06:00:45;0.30;99.90
19437;DHT22;9854;50.968;4.168;2023-03-01T06:03:13;0.30;99.90
19437;DHT22;9854;50.968;4.168;2023-03-01T06:05:40;0.30;99.90
19437;DHT22;9854;50.968;4.168;2023-03-01T06:08:06;0.30;99.90
19437;DHT22;9854;50.968;4.168;2023-03-01T06:10:32;0.40;99.90
19437;DHT22;9854;50.968;4.168;2023-03-01T06:12:58;0.40;99.90
19437;DHT22;9854;50.968;4.168;2023-03-01T06:15:24;0.40;99.90
19437;DHT22;9854;50.968;4.168;2023-03-01T06:17:50;0.40;99.90
19437;DHT22;9854;50.968;4.168;2023-03-01T06:20:18;0.40;99.90
19437;DHT22;9854;50.968;4.168;2023-03-01T06:22:45;0.60;99.90
19437;DHT22;9854;50.968;4.168;2023-03-01T06:25:13;0.50;99.90
19437;DHT22;9854;50.968;4.168;2023-03-01T06:27:40;0.50;99.90
19437;DHT22;9854;50.968;4.168;2023-03-01T06:30:06;0.50;99.90
19437;DHT22;9854;50.968;4.168;2023-03-01T06:32:33;0.40;99.90
19437;DHT22;9854;50.968;4.168;2023-03-01T06:34:58;0.50;99.90
19437;DHT22;9854;50.968;4.168;2023-03-01T06:37:25;0.50;99.90
19437;DHT22;9854;50.968;4.168;2023-03-01T06:39:51;0.70;99.90
19437;DHT22;9854;50.968;4.168;2023-03-01T06:42:17;0.60;99.90
19437;DHT22;9854;50.968;4.168;2023-03-01T06:44:43;0.60;99.90
19437;DHT22;9854;50.968;4.168;2023-03-01T06:47:09;0.60;99.90
19437;DHT22;9854;50.968;4.168;2023-03-01T06:49:34;0.50;99.90
19437;DHT22;9854;50.968;4.168;2023-03-01T06:52:00;0.50;99.90
19437;DHT22;9854;50.968;4.168;2023-03-01T06:54:25;0.50;99.90
19437;DHT22;9854;50.968;4.168;2023-03-01T06:56:52;0.50;99.90
19437;DHT22;9854;50.968;4.168;2023-03-01T06:59:18;0.50;99.90
19437;DHT22;9854;50.968;4.168;2023-03-01T07:01:44;0.50;99.90
19437;DHT22;9854;50.968;4.168;2023-03-01T07:04:10;0.50;99.90
19437;DHT22;9854;50.968;4.168;2023-03-01T07:06:36;0.50;99.90
19437;DHT22;9854;50.968;4.168;2023-03-01T07:09:02;0.50;99.90
19437;DHT22;9854;50.968;4.168;2023-03-01T07:11:27;0.60;99.90
19437;DHT22;9854;50.968;4.168;2023-03-01T07:13:53;0.50;99.90
19437;DHT22;9854;50.968;4.168;2023-03-01T07:16:19;0.50;99.90
19437;DHT22;9854;50.968;4.168;2023-03-01T07:18:46;0.50;99.90
19437;DHT22;9854;50.968;4.168;2023-03-01T07:21:13;0.60;99.90
19437;DHT22;9854;50.968;4.168;2023-03-01T07:23:39;0.60;99.90
19437;DHT22;9854;50.968;4.168;2023-03-01T07:26:05;0.60;99.90
19437;DHT22;9854;50.968;4.168;2023-03-01T07:28:30;0.70;99.90
19437;DHT22;9854;50.968;4.168;2023-03-01T07:31:01;0.70;99.90
19437;DHT22;9854;50.968;4.168;2023-03-01T07:33:27;0.80;99.90
19437;DHT22;9854;50.968;4.168;2023-03-01T07:36:02;0.80;99.90
19437;DHT22;9854;50.968;4.168;2023-03-01T07:38:28;0.90;99.90
19437;DHT22;9854;50.968;4.168;2023-03-01T07:41:01;1.00;99.90
19437;DHT22;9854;50.968;4.168;2023-03-01T07:43:31;1.10;99.90
19437;DHT22;9854;50.968;4.168;2023-03-01T07:46:00;1.10;99.90
19437;DHT22;9854;50.968;4.168;2023-03-01T07:48:26;1.20;99.90
19437;DHT22;9854;50.968;4.168;2023-03-01T07:50:51;1.30;99.90
19437;DHT22;9854;50.968;4.168;2023-03-01T07:53:17;1.30;99.90
19437;DHT22;9854;50.968;4.168;2023-03-01T07:55:43;1.40;99.90
19437;DHT22;9854;50.968;4.168;2023-03-01T07:58:09;1.50;99.90
19437;DHT22;9854;50.968;4.168;2023-03-01T08:00:34;1.60;99.90
19437;DHT22;9854;50.968;4.168;2023-03-01T08:03:01;1.70;99.90
19437;DHT22;9854;50.968;4.168;2023-03-01T08:05:27;1.80;99.90
19437;DHT22;9854;50.968;4.168;2023-03-01T08:07:53;1.90;99.90
19437;DHT22;9854;50.968;4.168;2023-03-01T08:10:19;2.00;99.90
19437;DHT22;9854;50.968;4.168;2023-03-01T08:12:45;2.00;99.90
19437;DHT22;9854;50.968;4.168;2023-03-01T08:15:11;2.10;99.90
19437;DHT22;9854;50.968;4.168;2023-03-01T08:17:36;2.20;99.90
19437;DHT22;9854;50.968;4.168;2023-03-01T08:20:03;2.30;99.90
19437;DHT22;9854;50.968;4.168;2023-03-01T08:22:31;2.40;99.90
19437;DHT22;9854;50.968;4.168;2023-03-01T08:24:57;2.50;99.90
19437;DHT22;9854;50.968;4.168;2023-03-01T08:27:22;2.60;99.90
19437;DHT22;9854;50.968;4.168;2023-03-01T08:29:48;2.60;99.90
19437;DHT22;9854;50.968;4.168;2023-03-01T08:32:14;2.70;99.90
19437;DHT22;9854;50.968;4.168;2023-03-01T08:34:40;2.70;99.90
19437;DHT22;9854;50.968;4.168;2023-03-01T08:37:05;2.80;99.90
19437;DHT22;9854;50.968;4.168;2023-03-01T08:39:31;2.90;99.90
19437;DHT22;9854;50.968;4.168;2023-03-01T08:41:56;3.00;99.90
19437;DHT22;9854;50.968;4.168;2023-03-01T08:44:22;3.10;99.90
19437;DHT22;9854;50.968;4.168;2023-03-01T08:46:48;3.20;99.90
19437;DHT22;9854;50.968;4.168;2023-03-01T08:49:19;3.20;99.90
19437;DHT22;9854;50.968;4.168;2023-03-01T08:51:45;3.30;99.90
19437;DHT22;9854;50.968;4.168;2023-03-01T08:54:16;3.40;99.90
19437;DHT22;9854;50.968;4.168;2023-03-01T08:56:43;3.30;99.90
19437;DHT22;9854;50.968;4.168;2023-03-01T08:59:13;3.40;99.90
19437;DHT22;9854;50.968;4.168;2023-03-01T09:01:39;3.40;99.90
19437;DHT22;9854;50.968;4.168;2023-03-01T09:04:05;3.50;99.90
19437;DHT22;9854;50.968;4.168;2023-03-01T09:06:32;3.60;99.90
19437;DHT22;9854;50.968;4.168;2023-03-01T09:08:58;3.70;99.90
19437;DHT22;9854;50.968;4.168;2023-03-01T09:11:24;3.70;99.90
19437;DHT22;9854;50.968;4.168;2023-03-01T09:13:50;3.80;99.90
19437;DHT22;9854;50.968;4.168;2023-03-01T09:16:17;3.90;99.90
19437;DHT22;9854;50.968;4.168;2023-03-01T09:18:48;4.00;99.90
19437;DHT22;9854;50.968;4.168;2023-03-01T09:21:15;4.10;99.90
19437;DHT22;9854;50.968;4.168;2023-03-01T09:23:44;4.20;99.90
19437;DHT22;9854;50.968;4.168;2023-03-01T09:26:12;4.30;99.90
19437;DHT22;9854;50.968;4.168;2023-03-01T09:28:39;4.40;99.90
19437;DHT22;9854;50.968;4.168;2023-03-01T09:31:06;4.40;99.90
19437;DHT22;9854;50.968;4.168;2023-03-01T09:33:33;4.50;99.90
19437;DHT22;9854;50.968;4.168;2023-03-01T09:36:00;4.50;99.90
19437;DHT22;9854;50.968;4.168;2023-03-01T09:38:26;4.60;99.90
19437;DHT22;9854;50.968;4.168;2023-03-01T09:40:52;4.70;99.90
19437;DHT22;9854;50.968;4.168;2023-03-01T09:46:00;4.90;99.90
19437;DHT22;9854;50.968;4.168;2023-03-01T09:48:33;5.10;99.90
19437;DHT22;9854;50.968;4.168;2023-03-01T09:51:08;5.10;99.90
19437;DHT22;9854;50.968;4.168;2023-03-01T09:53:38;5.10;99.90
19437;DHT22;9854;50.968;4.168;2023-03-01T09:56:24;5.10;99.90
19437;DHT22;9854;50.968;4.168;2023-03-01T10:09:37;5.70;99.90
19437;DHT22;9854;50.968;4.168;2023-03-01T10:12:09;5.80;99.90
19437;DHT22;9854;50.968;4.168;2023-03-01T10:14:54;5.90;99.90
19437;DHT22;9854;50.968;4.168;2023-03-01T10:22:42;6.30;99.90
19437;DHT22;9854;50.968;4.168;2023-03-01T10:25:14;6.40;99.90
19437;DHT22;9854;50.968;4.168;2023-03-01T10:27:49;6.40;99.90
19437;DHT22;9854;50.968;4.168;2023-03-01T10:32:50;6.70;99.90
19437;DHT22;9854;50.968;4.168;2023-03-01T10:35:22;6.80;99.90
19437;DHT22;9854;50.968;4.168;2023-03-01T10:38:13;6.90;99.90
19437;DHT22;9854;50.968;4.168;2023-03-01T10:41:05;7.00;99.90
19437;DHT22;9854;50.968;4.168;2023-03-01T10:43:56;7.10;99.90
19437;DHT22;9854;50.968;4.168;2023-03-01T10:46:31;7.20;99.90
19437;DHT22;9854;50.968;4.168;2023-03-01T10:49:19;7.20;99.90
19437;DHT22;9854;50.968;4.168;2023-03-01T10:51:49;7.20;99.90
19437;DHT22;9854;50.968;4.168;2023-03-01T10:54:27;7.30;99.90
19437;DHT22;9854;50.968;4.168;2023-03-01T10:56:58;7.50;99.90
19437;DHT22;9854;50.968;4.168;2023-03-01T10:59:31;7.60;99.90
19437;DHT22;9854;50.968;4.168;2023-03-01T11:05:01;8.00;99.90
19437;DHT22;9854;50.968;4.168;2023-03-01T11:07:27;8.10;99.90
19437;DHT22;9854;50.968;4.168;2023-03-01T11:09:53;8.10;99.90
19437;DHT22;9854;50.968;4.168;2023-03-01T11:12:20;8.10;99.90
19437;DHT22;9854;50.968;4.168;2023-03-01T11:14:57;8.20;99.90
19437;DHT22;9854;50.968;4.168;2023-03-01T11:17:30;8.30;99.90
19437;DHT22;9854;50.968;4.168;2023-03-01T11:22:48;8.50;99.90
19437;DHT22;9854;50.968;4.168;2023-03-01T11:25:17;8.60;99.90
19437;DHT22;9854;50.968;4.168;2023-03-01T11:27:45;8.80;99.90
19437;DHT22;9854;50.968;4.168;2023-03-01T11:30:34;8.80;99.90
19437;DHT22;9854;50.968;4.168;2023-03-01T11:36:16;9.10;99.90
19437;DHT22;9854;50.968;4.168;2023-03-01T11:38:43;9.20;99.90
19437;DHT22;9854;50.968;4.168;2023-03-01T11:41:18;9.30;99.90
19437;DHT22;9854;50.968;4.168;2023-03-01T11:49:06;9.30;99.90
19437;DHT22;9854;50.968;4.168;2023-03-01T11:54:43;9.70;99.90
19437;DHT22;9854;50.968;4.168;2023-03-01T11:57:30;9.60;99.90
19437;DHT22;9854;50.968;4.168;2023-03-01T12:00:02;9.40;99.90
19437;DHT22;9854;50.968;4.168;2023-03-01T12:02:55;9.40;99.90
19437;DHT22;9854;50.968;4.168;2023-03-01T12:08:45;9.80;99.90
19437;DHT22;9854;50.968;4.168;2023-03-01T12:14:10;10.00;99.90
19437;DHT22;9854;50.968;4.168;2023-03-01T12:25:25;10.20;99.90
19437;DHT22;9854;50.968;4.168;2023-03-01T12:42:31;10.90;99.90
19437;DHT22;9854;50.968;4.168;2023-03-01T12:50:40;10.90;99.90
19437;DHT22;9854;50.968;4.168;2023-03-01T12:55:45;11.00;99.90
19437;DHT22;9854;50.968;4.168;2023-03-01T13:01:16;11.20;99.90
19437;DHT22;9854;50.968;4.168;2023-03-01T13:11:44;11.90;99.90
19437;DHT22;9854;50.968;4.168;2023-03-01T13:16:52;12.20;99.90
19437;DHT22;9854;50.968;4.168;2023-03-01T13:19:26;12.30;99.90
19437;DHT22;9854;50.968;4.168;2023-03-01T13:21:54;12.30;99.90
19437;DHT22;9854;50.968;4.168;2023-03-01T13:29:55;12.70;99.90
19437;DHT22;9854;50.968;4.168;2023-03-01T13:32:32;12.70;99.90
19437;DHT22;9854;50.968;4.168;2023-03-01T13:35:04;12.80;99.90
19437;DHT22;9854;50.968;4.168;2023-03-01T13:37:48;12.80;99.90
19437;DHT22;9854;50.968;4.168;2023-03-01T13:42:50;13.20;99.90
19437;DHT22;9854;50.968;4.168;2023-03-01T13:45:38;13.50;99.90
19437;DHT22;9854;50.968;4.168;2023-03-01T13:48:11;13.60;99.90
19437;DHT22;9854;50.968;4.168;2023-03-01T13:50:48;13.60;99.90
19437;DHT22;9854;50.968;4.168;2023-03-01T13:53:22;13.90;99.90
19437;DHT22;9854;50.968;4.168;2023-03-01T13:56:00;13.90;99.90
19437;DHT22;9854;50.968;4.168;2023-03-01T13:58:32;13.80;99.90
19437;DHT22;9854;50.968;4.168;2023-03-01T14:01:06;14.10;99.90
19437;DHT22;9854;50.968;4.168;2023-03-01T14:03:41;14.10;99.90
19437;DHT22;9854;50.968;4.168;2023-03-01T14:06:15;14.30;99.90
19437;DHT22;9854;50.968;4.168;2023-03-01T14:08:44;14.40;99.90
19437;DHT22;9854;50.968;4.168;2023-03-01T14:11:37;14.50;99.90
19437;DHT22;9854;50.968;4.168;2023-03-01T14:19:45;14.30;99.90
19437;DHT22;9854;50.968;4.168;2023-03-01T14:22:27;14.50;99.90
19437;DHT22;9854;50.968;4.168;2023-03-01T14:24:57;14.70;99.90
19437;DHT22;9854;50.968;4.168;2023-03-01T14:27:26;14.10;99.90
19437;DHT22;9854;50.968;4.168;2023-03-01T14:29:58;14.30;99.90
19437;DHT22;9854;50.968;4.168;2023-03-01T14:34:52;13.70;99.90
19437;DHT22;9854;50.968;4.168;2023-03-01T14:39:48;14.40;99.90
19437;DHT22;9854;50.968;4.168;2023-03-01T14:42:14;14.70;99.90
19437;DHT22;9854;50.968;4.168;2023-03-01T14:44:42;14.90;99.90
19437;DHT22;9854;50.968;4.168;2023-03-01T14:47:33;15.00;99.90
19437;DHT22;9854;50.968;4.168;2023-03-01T14:50:22;15.00;99.90
19437;DHT22;9854;50.968;4.168;2023-03-01T14:52:50;15.20;99.90
19437;DHT22;9854;50.968;4.168;2023-03-01T14:55:33;14.80;99.90
19437;DHT22;9854;50.968;4.168;2023-03-01T14:58:03;15.00;99.90
19437;DHT22;9854;50.968;4.168;2023-03-01T15:00:30;15.10;99.90
19437;DHT22;9854;50.968;4.168;2023-03-01T15:03:07;15.30;99.90
19437;DHT22;9854;50.968;4.168;2023-03-01T15:05:39;15.30;99.90
19437;DHT22;9854;50.968;4.168;2023-03-01T15:08:05;15.50;99.90
19437;DHT22;9854;50.968;4.168;2023-03-01T15:10:33;15.40;99.90
19437;DHT22;9854;50.968;4.168;2023-03-01T15:13:23;15.60;99.90
19437;DHT22;9854;50.968;4.168;2023-03-01T15:15:50;15.70;99.90
19437;DHT22;9854;50.968;4.168;2023-03-01T15:20:45;15.40;99.90
19437;DHT22;9854;50.968;4.168;2023-03-01T15:23:24;15.50;99.90
19437;DHT22;9854;50.968;4.168;2023-03-01T15:25:52;15.70;99.90
19437;DHT22;9854;50.968;4.168;2023-03-01T15:28:28;15.50;99.90
19437;DHT22;9854;50.968;4.168;2023-03-01T15:31:34;15.60;99.90
19437;DHT22;9854;50.968;4.168;2023-03-01T15:33:53;15.40;99.90
19437;DHT22;9854;50.968;4.168;2023-03-01T15:36:43;14.80;99.90
19437;DHT22;9854;50.968;4.168;2023-03-01T15:42:50;15.10;99.90
19437;DHT22;9854;50.968;4.168;2023-03-01T15:45:19;15.20;99.90
19437;DHT22;9854;50.968;4.168;2023-03-01T15:47:57;15.20;99.90
19437;DHT22;9854;50.968;4.168;2023-03-01T15:50:35;15.40;99.90
19437;DHT22;9854;50.968;4.168;2023-03-01T15:53:05;15.40;99.90
19437;DHT22;9854;50.968;4.168;2023-03-01T15:55:34;15.20;99.90
19437;DHT22;9854;50.968;4.168;2023-03-01T15:58:03;15.30;99.90
19437;DHT22;9854;50.968;4.168;2023-03-01T16:00:29;15.60;99.90
19437;DHT22;9854;50.968;4.168;2023-03-01T16:02:56;15.80;99.90
19437;DHT22;9854;50.968;4.168;2023-03-01T16:05:30;15.90;99.90
19437;DHT22;9854;50.968;4.168;2023-03-01T16:07:56;15.70;99.90
19437;DHT22;9854;50.968;4.168;2023-03-01T16:10:22;15.50;99.90
19437;DHT22;9854;50.968;4.168;2023-03-01T16:12:50;14.70;99.90
19437;DHT22;9854;50.968;4.168;2023-03-01T16:15:22;14.60;99.90
19437;DHT22;9854;50.968;4.168;2023-03-01T16:17:49;15.20;99.90
19437;DHT22;9854;50.968;4.168;2023-03-01T16:20:16;15.10;99.90
19437;DHT22;9854;50.968;4.168;2023-03-01T16:22:45;15.30;99.90
19437;DHT22;9854;50.968;4.168;2023-03-01T16:25:13;15.30;99.90
19437;DHT22;9854;50.968;4.168;2023-03-01T16:27:42;15.70;99.90
19437;DHT22;9854;50.968;4.168;2023-03-01T16:30:09;16.10;99.90
19437;DHT22;9854;50.968;4.168;2023-03-01T16:32:39;16.20;99.90
19437;DHT22;9854;50.968;4.168;2023-03-01T16:35:06;16.10;99.90
19437;DHT22;9854;50.968;4.168;2023-03-01T16:37:33;15.20;99.90
19437;DHT22;9854;50.968;4.168;2023-03-01T16:39:59;15.40;99.90
19437;DHT22;9854;50.968;4.168;2023-03-01T16:42:25;15.70;99.90
19437;DHT22;9854;50.968;4.168;2023-03-01T16:44:57;15.70;99.90
19437;DHT22;9854;50.968;4.168;2023-03-01T16:47:22;15.60;99.90
19437;DHT22;9854;50.968;4.168;2023-03-01T16:49:52;15.50;99.90
19437;DHT22;9854;50.968;4.168;2023-03-01T16:52:22;15.50;99.90
19437;DHT22;9854;50.968;4.168;2023-03-01T16:54:48;15.30;99.90
19437;DHT22;9854;50.968;4.168;2023-03-01T16:57:14;14.80;99.90
19437;DHT22;9854;50.968;4.168;2023-03-01T16:59:40;14.10;99.90
19437;DHT22;9854;50.968;4.168;2023-03-01T17:02:08;13.70;99.90
19437;DHT22;9854;50.968;4.168;2023-03-01T17:04:36;13.10;99.90
19437;DHT22;9854;50.968;4.168;2023-03-01T17:07:02;12.60;99.90
19437;DHT22;9854;50.968;4.168;2023-03-01T17:09:28;12.10;99.90
19437;DHT22;9854;50.968;4.168;2023-03-01T17:11:54;12.00;99.90
19437;DHT22;9854;50.968;4.168;2023-03-01T17:14:20;11.70;99.90
19437;DHT22;9854;50.968;4.168;2023-03-01T17:16:46;11.20;99.90
19437;DHT22;9854;50.968;4.168;2023-03-01T17:19:12;10.80;99.90
19437;DHT22;9854;50.968;4.168;2023-03-01T17:21:43;10.70;99.90
19437;DHT22;9854;50.968;4.168;2023-03-01T17:24:09;10.40;99.90
19437;DHT22;9854;50.968;4.168;2023-03-01T17:26:35;10.00;99.90
19437;DHT22;9854;50.968;4.168;2023-03-01T17:29:01;9.60;99.90
19437;DHT22;9854;50.968;4.168;2023-03-01T17:31:26;9.30;99.90
19437;DHT22;9854;50.968;4.168;2023-03-01T17:33:52;9.20;99.90
19437;DHT22;9854;50.968;4.168;2023-03-01T17:36:18;8.90;99.90
19437;DHT22;9854;50.968;4.168;2023-03-01T17:38:44;8.70;99.90
19437;DHT22;9854;50.968;4.168;2023-03-01T17:41:11;8.60;99.90
19437;DHT22;9854;50.968;4.168;2023-03-01T17:43:37;8.60;99.90
19437;DHT22;9854;50.968;4.168;2023-03-01T17:46:03;8.40;99.90
19437;DHT22;9854;50.968;4.168;2023-03-01T17:48:28;8.30;99.90
19437;DHT22;9854;50.968;4.168;2023-03-01T17:50:54;8.00;99.90
19437;DHT22;9854;50.968;4.168;2023-03-01T17:53:20;7.90;99.90
19437;DHT22;9854;50.968;4.168;2023-03-01T17:55:47;7.80;99.90
19437;DHT22;9854;50.968;4.168;2023-03-01T17:58:18;8.00;99.90
19437;DHT22;9854;50.968;4.168;2023-03-01T18:00:48;7.90;99.90
19437;DHT22;9854;50.968;4.168;2023-03-01T18:03:15;7.80;99.90
19437;DHT22;9854;50.968;4.168;2023-03-01T18:05:40;7.70;99.90
19437;DHT22;9854;50.968;4.168;2023-03-01T18:08:06;7.60;99.90
19437;DHT22;9854;50.968;4.168;2023-03-01T18:10:32;7.50;99.90
19437;DHT22;9854;50.968;4.168;2023-03-01T18:13:01;7.40;99.90
19437;DHT22;9854;50.968;4.168;2023-03-01T18:15:27;7.30;99.90